createdAt,value
2019-03-05T00:01:54.173Z,15.00
2019-03-05T00:04:23.687Z,15.07
2019-03-05T00:06:53.183Z,19.77
2019-03-05T00:09:22.894Z,14.87
2019-03-05T00:11:52.437Z,16.15
2019-03-05T00:14:25.146Z,14.10
2019-03-05T00:16:54.692Z,16.25
2019-03-05T00:19:24.221Z,15.30
2019-03-05T00:21:53.991Z,10.95
2019-03-05T00:24:44.242Z,13.95
2019-03-05T00:27:13.706Z,13.55
2019-03-05T00:30:16.893Z,16.40
2019-03-05T00:32:48.471Z,10.68
2019-03-05T00:35:30.343Z,8.13
2019-03-05T00:38:27.512Z,10.55
2019-03-05T00:41:11.648Z,14.23
2019-03-05T00:44:03.646Z,11.33
2019-03-05T00:46:49.568Z,9.18
2019-03-05T00:49:58.403Z,10.10
2019-03-05T00:53:13.012Z,11.03
2019-03-05T00:56:10.014Z,11.60
2019-03-05T00:58:54.059Z,10.35
2019-03-05T01:02:11.082Z,10.80
2019-03-05T01:05:17.856Z,9.83
2019-03-05T01:07:47.366Z,10.32
2019-03-05T01:10:16.949Z,8.93
2019-03-05T01:12:46.518Z,9.23
2019-03-05T01:15:16.499Z,10.93
2019-03-05T01:17:45.999Z,9.60
2019-03-05T01:20:15.497Z,7.83
2019-03-05T01:22:44.984Z,6.87
2019-03-05T01:25:27.806Z,8.70
2019-03-05T01:27:57.398Z,8.40
2019-03-05T01:30:36.009Z,11.25
2019-03-05T01:33:10.160Z,12.63
2019-03-05T01:35:45.001Z,12.47
2019-03-05T01:38:14.508Z,10.38
2019-03-05T01:40:48.998Z,10.23
2019-03-05T01:43:18.573Z,15.23
2019-03-05T01:45:48.080Z,8.88
2019-03-05T01:48:17.583Z,10.48
2019-03-05T01:50:47.088Z,10.18
2019-03-05T01:53:16.664Z,13.22
2019-03-05T01:55:46.158Z,14.07
2019-03-05T01:58:15.678Z,11.65
2019-03-05T02:00:45.249Z,13.98
2019-03-05T02:03:14.869Z,15.03
2019-03-05T02:05:44.364Z,15.40
2019-03-05T02:08:13.966Z,15.00
2019-03-05T02:10:43.695Z,18.25
2019-03-05T02:13:13.284Z,19.32
2019-03-05T02:15:42.783Z,16.20
2019-03-05T02:18:18.359Z,15.70
2019-03-05T02:20:48.178Z,18.77
2019-03-05T02:23:38.068Z,22.67
2019-03-05T02:26:46.318Z,21.85
2019-03-05T02:29:54.268Z,20.05
2019-03-05T02:32:41.710Z,17.25
2019-03-05T02:35:20.104Z,17.90
2019-03-05T02:38:05.702Z,21.23
2019-03-05T02:41:02.440Z,23.77
2019-03-05T02:43:44.147Z,22.30
2019-03-05T02:46:24.169Z,22.40
2019-03-05T02:49:19.564Z,21.45
2019-03-05T02:52:24.140Z,20.25
2019-03-05T02:55:23.424Z,21.10
2019-03-05T02:57:51.731Z,21.97
2019-03-05T03:00:32.613Z,25.37
2019-03-05T03:03:08.534Z,16.03
2019-03-05T03:05:56.126Z,17.65
2019-03-05T03:08:25.634Z,21.42
2019-03-05T03:10:55.201Z,22.37
2019-03-05T03:13:24.706Z,19.73
2019-03-05T03:15:54.207Z,22.35
2019-03-05T03:18:23.725Z,20.77
2019-03-05T03:20:53.250Z,23.18
2019-03-05T03:23:22.747Z,20.17
2019-03-05T03:25:52.317Z,22.82
2019-03-05T03:28:21.819Z,27.10
2019-03-05T03:30:51.367Z,17.15
2019-03-05T03:33:20.945Z,21.15
2019-03-05T03:35:50.444Z,22.73
2019-03-05T03:38:19.958Z,21.45
2019-03-05T03:40:49.456Z,23.85
2019-03-05T03:43:18.961Z,22.85
2019-03-05T03:45:48.489Z,18.85
2019-03-05T03:48:17.999Z,22.95
2019-03-05T03:50:47.509Z,21.85
2019-03-05T03:53:17.008Z,19.98
2019-03-05T03:55:46.517Z,25.80
2019-03-05T03:58:16.102Z,23.05
2019-03-05T04:00:45.621Z,24.77
2019-03-05T04:03:15.181Z,26.95
2019-03-05T04:05:44.686Z,24.15
2019-03-05T04:08:14.214Z,29.50
2019-03-05T04:10:43.711Z,19.87
2019-03-05T04:13:13.231Z,24.25
2019-03-05T04:15:42.815Z,20.45
2019-03-05T04:18:12.323Z,32.00
2019-03-05T04:20:45.885Z,26.25
2019-03-05T04:23:15.471Z,25.68
2019-03-05T04:25:45.145Z,24.80
2019-03-05T04:28:14.694Z,25.12
2019-03-05T04:30:44.263Z,22.60
2019-03-05T04:33:13.789Z,26.42
2019-03-05T04:35:43.299Z,16.63
2019-03-05T04:38:12.898Z,25.30
2019-03-05T04:40:42.441Z,18.80
2019-03-05T04:43:12.940Z,23.50
2019-03-05T04:45:50.834Z,21.82
2019-03-05T04:48:21.719Z,22.10
2019-03-05T04:51:00.171Z,14.63
2019-03-05T04:53:29.688Z,23.60
2019-03-05T04:55:59.287Z,28.90
2019-03-05T04:58:28.802Z,19.05
2019-03-05T05:00:58.327Z,14.70
2019-03-05T05:03:27.868Z,14.90
2019-03-05T05:05:57.386Z,14.65
2019-03-05T05:08:26.904Z,13.72
2019-03-05T05:10:57.469Z,13.80
2019-03-05T05:13:26.980Z,9.50
2019-03-05T05:15:56.501Z,10.70
2019-03-05T05:18:26.028Z,8.33
2019-03-05T05:20:55.563Z,14.33
2019-03-05T05:23:25.056Z,9.30
2019-03-05T05:25:54.721Z,9.78
2019-03-05T05:28:24.158Z,8.83
2019-03-05T05:30:53.672Z,10.33
2019-03-05T05:33:23.195Z,10.15
2019-03-05T05:35:52.758Z,10.10
2019-03-05T05:38:22.275Z,6.85
2019-03-05T05:40:51.806Z,10.90
2019-03-05T05:43:24.062Z,8.43
2019-03-05T05:45:53.876Z,9.40
2019-03-05T05:48:23.440Z,9.58
2019-03-05T05:50:52.960Z,9.78
2019-03-05T05:53:22.587Z,10.77
2019-03-05T05:55:52.097Z,8.10
2019-03-05T05:58:21.635Z,8.97
2019-03-05T06:00:53.357Z,11.57
2019-03-05T06:03:22.873Z,9.70
2019-03-05T06:05:52.391Z,12.40
2019-03-05T06:08:21.902Z,13.73
2019-03-05T06:10:52.919Z,25.03
2019-03-05T06:13:22.756Z,11.20
2019-03-05T06:15:52.366Z,17.30
2019-03-05T06:18:21.869Z,14.40
2019-03-05T06:20:51.456Z,17.20
2019-03-05T06:23:20.979Z,16.83
2019-03-05T06:25:50.512Z,17.83
2019-03-05T06:28:20.976Z,15.50
2019-03-05T06:30:50.495Z,15.90
2019-03-05T06:33:20.038Z,15.30
2019-03-05T06:35:49.566Z,16.40
2019-03-05T06:38:19.095Z,17.87
2019-03-05T06:40:48.629Z,14.97
2019-03-05T06:43:18.130Z,19.12
2019-03-05T06:45:48.019Z,17.47
2019-03-05T06:48:18.575Z,16.60
2019-03-05T06:50:48.279Z,18.48
2019-03-05T06:53:19.171Z,13.85
2019-03-05T06:55:48.704Z,15.43
2019-03-05T06:58:18.250Z,15.60
2019-03-05T07:00:47.766Z,15.77
2019-03-05T07:03:17.319Z,13.80
2019-03-05T07:06:23.202Z,12.63
2019-03-05T07:09:12.993Z,11.03
2019-03-05T07:12:19.647Z,11.30
2019-03-05T07:15:35.803Z,15.95
2019-03-05T07:18:16.122Z,14.60
2019-03-05T07:21:33.283Z,20.68
2019-03-05T07:24:40.866Z,14.93
2019-03-05T07:27:10.819Z,15.20
2019-03-05T07:29:40.992Z,8.88
2019-03-05T07:32:10.524Z,15.83
2019-03-05T07:34:42.467Z,14.38
2019-03-05T07:37:12.820Z,13.83
2019-03-05T07:39:42.336Z,12.90
2019-03-05T07:42:11.936Z,12.77
2019-03-05T07:44:41.457Z,14.00
2019-03-05T07:47:10.981Z,14.45
2019-03-05T07:49:44.006Z,13.25
2019-03-05T07:52:11.715Z,14.13
2019-03-05T07:54:41.217Z,14.67
2019-03-05T07:57:10.742Z,14.40
2019-03-05T07:59:40.266Z,13.70
2019-03-05T08:02:09.953Z,9.93
2019-03-05T08:04:39.476Z,11.87
2019-03-05T08:07:08.985Z,10.97
2019-03-05T08:09:39.187Z,14.37
2019-03-05T08:12:32.093Z,11.50
2019-03-05T08:15:08.603Z,12.43
2019-03-05T08:17:38.121Z,10.03
2019-03-05T08:20:09.378Z,8.93
2019-03-05T08:22:38.889Z,10.63
2019-03-05T08:25:09.733Z,10.23
2019-03-05T08:27:39.238Z,13.30
2019-03-05T08:30:14.528Z,12.67
2019-03-05T08:32:42.882Z,10.20
2019-03-05T08:35:12.403Z,8.35
2019-03-05T08:37:41.927Z,9.00
2019-03-05T08:40:12.088Z,11.30
2019-03-05T08:42:41.613Z,11.95
2019-03-05T08:45:12.625Z,11.75
2019-03-05T08:47:42.239Z,10.92
2019-03-05T08:50:12.119Z,8.05
2019-03-05T08:52:41.633Z,9.88
2019-03-05T08:55:11.175Z,7.08
2019-03-05T08:57:40.726Z,10.32
2019-03-05T09:00:13.191Z,13.65
2019-03-05T09:02:48.683Z,11.83
2019-03-05T09:05:14.931Z,9.30
2019-03-05T09:07:44.682Z,12.07
2019-03-05T09:10:15.379Z,13.60
2019-03-05T09:12:44.895Z,9.75
2019-03-05T09:15:16.030Z,10.15
2019-03-05T09:17:45.707Z,9.15
2019-03-05T09:20:16.125Z,11.77
2019-03-05T09:22:45.684Z,10.10
2019-03-05T09:25:15.295Z,14.33
2019-03-05T09:27:45.003Z,10.27
2019-03-05T09:30:16.945Z,14.53
2019-03-05T09:32:46.455Z,11.90
2019-03-05T09:35:16.152Z,11.23
2019-03-05T09:37:45.759Z,11.80
2019-03-05T09:40:17.941Z,8.13
2019-03-05T09:42:47.462Z,13.45
2019-03-05T09:45:18.021Z,9.67
2019-03-05T09:47:47.605Z,10.97
2019-03-05T09:50:17.537Z,9.30
2019-03-05T09:52:54.760Z,13.63
2019-03-05T09:55:19.561Z,8.40
2019-03-05T09:57:53.363Z,11.60
2019-03-05T10:00:23.472Z,10.25
2019-03-05T10:02:53.253Z,7.30
2019-03-05T10:05:22.843Z,8.07
2019-03-05T10:07:52.316Z,11.60
2019-03-05T10:10:23.291Z,10.33
2019-03-05T10:12:52.969Z,8.07
2019-03-05T10:15:23.637Z,8.53
2019-03-05T10:17:53.320Z,12.17
2019-03-05T10:20:22.978Z,11.00
2019-03-05T10:22:52.625Z,6.00
2019-03-05T10:25:22.574Z,5.60
2019-03-05T10:27:52.192Z,11.30
2019-03-05T10:30:25.335Z,9.35
2019-03-05T10:32:55.352Z,7.72
2019-03-05T10:35:26.189Z,4.43
2019-03-05T10:37:57.021Z,9.20
2019-03-05T10:40:29.376Z,7.95
2019-03-05T10:43:08.100Z,7.20
2019-03-05T10:45:30.192Z,6.33
2019-03-05T10:47:59.820Z,8.03
2019-03-05T10:50:29.538Z,7.37
2019-03-05T10:53:00.323Z,5.00
2019-03-05T10:55:29.847Z,4.57
2019-03-05T10:57:59.370Z,6.70
2019-03-05T11:00:30.975Z,7.53
2019-03-05T11:03:00.573Z,4.67
2019-03-05T11:05:32.450Z,6.70
2019-03-05T11:08:03.106Z,7.53
2019-03-05T11:10:32.805Z,5.00
2019-03-05T11:13:02.521Z,5.33
2019-03-05T11:15:32.334Z,8.20
2019-03-05T11:18:02.221Z,5.93
2019-03-05T11:20:31.747Z,4.70
2019-03-05T11:23:01.244Z,4.50
2019-03-05T11:25:30.839Z,6.00
2019-03-05T11:28:00.351Z,8.00
2019-03-05T11:30:36.238Z,4.20
2019-03-05T11:33:02.107Z,3.90
2019-03-05T11:35:31.993Z,4.65
2019-03-05T11:38:01.509Z,4.45
2019-03-05T11:40:31.024Z,5.60
2019-03-05T11:43:13.850Z,4.30
2019-03-05T11:45:44.082Z,4.00
2019-03-05T11:48:14.485Z,4.10
2019-03-05T11:50:44.507Z,4.03
2019-03-05T11:53:14.091Z,4.37
2019-03-05T11:55:43.708Z,4.77
2019-03-05T11:58:13.215Z,5.53
2019-03-05T12:00:50.902Z,5.83
2019-03-05T12:03:20.414Z,4.92
2019-03-05T12:05:49.954Z,5.87
2019-03-05T12:08:19.461Z,4.73
2019-03-05T12:10:49.052Z,7.27
2019-03-05T12:13:19.935Z,5.70
2019-03-05T12:15:49.536Z,7.20
2019-03-05T12:18:19.067Z,5.28
2019-03-05T12:20:48.607Z,5.76
2019-03-05T12:23:21.621Z,6.07
2019-03-05T12:25:51.319Z,6.47
2019-03-05T12:28:20.845Z,4.00
2019-03-05T12:30:50.441Z,6.92
2019-03-05T12:33:19.964Z,4.65
2019-03-05T12:35:49.470Z,6.97
2019-03-05T12:38:18.992Z,7.85
2019-03-05T12:40:49.457Z,7.15
2019-03-05T12:43:19.000Z,5.78
2019-03-05T12:45:48.496Z,7.28
2019-03-05T12:48:18.005Z,6.72
2019-03-05T12:50:47.501Z,6.12
2019-03-05T12:53:17.366Z,6.80
2019-03-05T12:55:46.942Z,7.08
2019-03-05T12:58:16.442Z,5.60
2019-03-05T13:00:45.953Z,6.80
2019-03-05T13:03:15.461Z,5.60
2019-03-05T13:05:44.960Z,6.83
2019-03-05T13:08:14.495Z,3.50
2019-03-05T13:10:45.279Z,5.85
2019-03-05T13:13:15.366Z,6.22
2019-03-05T13:15:45.086Z,6.97
2019-03-05T13:18:15.567Z,7.55
2019-03-05T13:20:45.079Z,8.88
2019-03-05T13:23:14.615Z,5.03
2019-03-05T13:25:44.149Z,10.40
2019-03-05T13:28:13.702Z,6.75
2019-03-05T13:30:43.219Z,6.45
2019-03-05T13:33:12.817Z,6.85
2019-03-05T13:35:42.402Z,8.10
2019-03-05T13:38:11.968Z,7.30
2019-03-05T13:40:41.487Z,8.63
2019-03-05T13:43:11.101Z,4.97
2019-03-05T13:45:43.905Z,8.53
2019-03-05T13:49:02.576Z,9.95
2019-03-05T13:52:00.961Z,6.40
2019-03-05T13:54:57.579Z,5.00
2019-03-05T13:58:02.277Z,8.60
2019-03-05T14:00:31.798Z,6.67
2019-03-05T14:03:21.085Z,7.05
2019-03-05T14:06:19.667Z,5.73
2019-03-05T14:09:10.872Z,7.83
2019-03-05T14:11:40.421Z,10.33
2019-03-05T14:14:15.843Z,7.75
2019-03-05T14:16:45.921Z,10.80
2019-03-05T14:19:15.481Z,6.78
2019-03-05T14:21:45.074Z,5.70
2019-03-05T14:24:14.722Z,6.65
2019-03-05T14:26:44.240Z,8.98
2019-03-05T14:29:13.793Z,4.92
2019-03-05T14:31:43.611Z,8.65
2019-03-05T14:34:13.352Z,9.67
2019-03-05T14:36:42.891Z,6.70
2019-03-05T14:39:31.838Z,9.80
2019-03-05T14:42:01.912Z,7.47
2019-03-05T14:44:39.739Z,6.50
2019-03-05T14:47:03.782Z,8.75
2019-03-05T14:49:33.275Z,6.83
2019-03-05T14:52:02.924Z,8.88
2019-03-05T14:54:32.409Z,11.18
2019-03-05T14:57:01.962Z,6.30
2019-03-05T14:59:31.468Z,10.95
2019-03-05T15:02:02.325Z,8.63
2019-03-05T15:04:32.069Z,7.47
2019-03-05T15:07:04.545Z,5.03
2019-03-05T15:09:32.816Z,7.28
2019-03-05T15:12:02.319Z,5.55
2019-03-05T15:14:31.854Z,7.30
2019-03-05T15:17:01.402Z,5.90
2019-03-05T15:19:30.988Z,5.63
2019-03-05T15:22:00.503Z,5.55
2019-03-05T15:24:30.116Z,6.10
2019-03-05T15:27:00.003Z,9.30
2019-03-05T15:29:29.528Z,5.97
2019-03-05T15:31:59.064Z,4.08
2019-03-05T15:34:28.704Z,12.03
2019-03-05T15:36:59.278Z,6.47
2019-03-05T15:39:28.869Z,8.77
2019-03-05T15:41:58.433Z,6.23
2019-03-05T15:44:27.973Z,8.97
2019-03-05T15:46:57.552Z,5.60
2019-03-05T15:49:27.142Z,8.65
2019-03-05T15:51:56.666Z,5.65
2019-03-05T15:54:26.134Z,6.57
2019-03-05T15:56:55.645Z,7.60
2019-03-05T15:59:25.177Z,8.53
2019-03-05T16:01:54.678Z,3.60
2019-03-05T16:04:24.280Z,7.28
2019-03-05T16:06:53.801Z,10.95
2019-03-05T16:09:23.360Z,6.72
2019-03-05T16:11:52.901Z,6.03
2019-03-05T16:14:22.507Z,9.60
2019-03-05T16:16:52.842Z,7.60
2019-03-05T16:19:23.534Z,7.72
2019-03-05T16:21:53.052Z,5.80
2019-03-05T16:24:23.081Z,9.85
2019-03-05T16:26:56.811Z,12.93
2019-03-05T16:29:24.114Z,8.30
2019-03-05T16:32:00.350Z,10.65
2019-03-05T16:34:58.076Z,11.88
2019-03-05T16:37:43.778Z,8.65
2019-03-05T16:40:40.945Z,3.63
2019-03-05T16:43:47.985Z,8.98
2019-03-05T16:46:44.129Z,8.35
2019-03-05T16:49:48.698Z,14.78
2019-03-05T16:52:35.920Z,9.43
2019-03-05T16:55:20.208Z,9.83
2019-03-05T16:58:11.733Z,9.60
2019-03-05T17:01:00.650Z,9.43
2019-03-05T17:03:43.305Z,11.93
2019-03-05T17:06:34.419Z,8.05
2019-03-05T17:09:20.949Z,10.05
2019-03-05T17:11:54.845Z,9.00
2019-03-05T17:14:24.366Z,12.53
2019-03-05T17:16:53.917Z,11.80
2019-03-05T17:19:23.444Z,8.00
2019-03-05T17:21:53.233Z,9.53
2019-03-05T17:24:23.925Z,9.25
2019-03-05T17:26:56.625Z,20.45
2019-03-05T17:29:25.706Z,9.88
2019-03-05T17:31:55.249Z,10.03
2019-03-05T17:34:24.973Z,6.90
2019-03-05T17:36:54.526Z,9.65
2019-03-05T17:39:25.831Z,14.60
2019-03-05T17:41:55.355Z,11.30
2019-03-05T17:44:24.960Z,8.00
2019-03-05T17:46:54.564Z,9.50
2019-03-05T17:49:24.052Z,11.63
2019-03-05T17:51:53.576Z,11.10
2019-03-05T17:54:23.110Z,9.68
2019-03-05T17:56:53.008Z,7.50
2019-03-05T17:59:22.540Z,9.55
2019-03-05T18:01:52.091Z,7.70
2019-03-05T18:04:22.171Z,10.78
2019-03-05T18:06:51.690Z,11.93
2019-03-05T18:09:21.370Z,5.70
2019-03-05T18:11:50.908Z,16.37
2019-03-05T18:14:20.496Z,8.77
2019-03-05T18:16:50.037Z,10.40
2019-03-05T18:19:19.574Z,9.27
2019-03-05T18:21:49.099Z,8.78
2019-03-05T18:24:18.628Z,7.92
2019-03-05T18:26:48.160Z,10.45
2019-03-05T18:29:17.759Z,8.47
2019-03-05T18:31:47.292Z,8.70
2019-03-05T18:34:16.881Z,6.80
2019-03-05T18:36:46.408Z,8.67
2019-03-05T18:39:16.320Z,10.72
2019-03-05T18:41:46.051Z,12.68
2019-03-05T18:44:15.658Z,9.05
2019-03-05T18:46:46.155Z,9.43
2019-03-05T18:49:15.683Z,12.93
2019-03-05T18:51:45.204Z,9.15
2019-03-05T18:54:14.749Z,8.80
2019-03-05T18:56:44.300Z,7.93
2019-03-05T18:59:13.908Z,12.13
2019-03-05T19:01:44.453Z,10.68
2019-03-05T19:04:13.979Z,10.03
2019-03-05T19:06:43.512Z,8.53
2019-03-05T19:09:13.356Z,9.73
2019-03-05T19:11:43.146Z,12.93
2019-03-05T19:14:12.675Z,11.77
2019-03-05T19:16:42.220Z,16.17
2019-03-05T19:19:11.926Z,12.73
2019-03-05T19:21:41.460Z,11.22
2019-03-05T19:24:11.969Z,10.20
2019-03-05T19:26:41.507Z,11.25
2019-03-05T19:29:11.116Z,12.33
2019-03-05T19:31:41.667Z,7.33
2019-03-05T19:34:11.186Z,12.30
2019-03-05T19:36:40.736Z,11.22
2019-03-05T19:39:10.285Z,9.93
2019-03-05T19:41:41.452Z,8.03
2019-03-05T19:44:10.985Z,13.45
2019-03-05T19:46:40.537Z,13.70
2019-03-05T19:49:10.053Z,10.10
2019-03-05T19:51:39.589Z,11.05
2019-03-05T19:54:09.535Z,11.20
2019-03-05T19:56:41.481Z,8.87
2019-03-05T19:59:10.985Z,10.30
2019-03-05T20:01:45.756Z,11.10
2019-03-05T20:04:15.660Z,15.20
2019-03-05T20:06:45.183Z,9.13
2019-03-05T20:09:18.995Z,13.87
2019-03-05T20:11:48.523Z,10.33
2019-03-05T20:14:19.005Z,12.35
2019-03-05T20:16:50.029Z,9.88
2019-03-05T20:19:19.646Z,9.50
2019-03-05T20:21:49.181Z,11.33
2019-03-05T20:24:18.708Z,9.78
2019-03-05T20:26:48.481Z,10.03
2019-03-05T20:29:18.022Z,12.70
2019-03-05T20:31:47.639Z,9.23
2019-03-05T20:34:17.175Z,10.60
2019-03-05T20:36:46.772Z,11.90
2019-03-05T20:39:16.312Z,16.37
2019-03-05T20:41:46.234Z,13.30
2019-03-05T20:44:15.772Z,15.68
2019-03-05T20:46:45.311Z,13.32
2019-03-05T20:49:14.846Z,13.22
2019-03-05T20:51:44.383Z,11.90
2019-03-05T20:54:13.913Z,10.55
2019-03-05T20:56:43.506Z,10.28
2019-03-05T20:59:13.530Z,11.85
2019-03-05T21:01:43.116Z,10.63
2019-03-05T21:04:12.620Z,16.10
2019-03-05T21:06:42.155Z,10.77
2019-03-05T21:09:21.145Z,12.60
2019-03-05T21:11:50.672Z,13.58
2019-03-05T21:14:20.224Z,13.43
2019-03-05T21:16:49.734Z,11.65
2019-03-05T21:19:19.277Z,19.60
2019-03-05T21:21:48.821Z,14.90
2019-03-05T21:24:30.607Z,14.00
2019-03-05T21:27:00.137Z,16.80
2019-03-05T21:29:29.684Z,14.80
2019-03-05T21:31:59.824Z,12.40
2019-03-05T21:34:29.377Z,13.30
2019-03-05T21:36:58.912Z,12.60
2019-03-05T21:39:28.452Z,11.53
2019-03-05T21:41:57.977Z,15.15
2019-03-05T21:44:27.577Z,16.82
2019-03-05T21:46:57.299Z,12.80
2019-03-05T21:49:26.826Z,16.20
2019-03-05T21:51:56.338Z,10.82
2019-03-05T21:54:25.869Z,13.75
2019-03-05T21:56:56.931Z,21.73
2019-03-05T21:59:26.508Z,14.33
2019-03-05T22:01:56.349Z,13.43
2019-03-05T22:04:25.892Z,11.93
2019-03-05T22:06:55.422Z,13.05
2019-03-05T22:09:24.970Z,12.82
2019-03-05T22:11:54.505Z,11.90
2019-03-05T22:14:24.025Z,10.58
2019-03-05T22:16:53.565Z,16.40
2019-03-05T22:19:23.167Z,11.65
2019-03-05T22:21:53.035Z,10.15
2019-03-05T22:24:23.537Z,8.50
2019-03-05T22:26:53.030Z,8.70
2019-03-05T22:29:22.547Z,11.90
2019-03-05T22:31:53.018Z,17.17
2019-03-05T22:34:23.023Z,13.75
2019-03-05T22:36:52.542Z,11.93
2019-03-05T22:39:22.072Z,10.53
2019-03-05T22:41:51.578Z,9.33
2019-03-05T22:44:21.106Z,12.25
2019-03-05T22:46:50.604Z,9.90
2019-03-05T22:49:20.107Z,13.58
2019-03-05T22:51:50.675Z,8.93
2019-03-05T22:54:20.199Z,11.05
2019-03-05T22:56:49.873Z,12.00
2019-03-05T22:59:19.398Z,11.00
2019-03-05T23:01:48.905Z,11.48
2019-03-05T23:04:26.842Z,9.38
2019-03-05T23:06:56.427Z,7.80
2019-03-05T23:09:26.708Z,15.53
2019-03-05T23:11:56.452Z,13.08
2019-03-05T23:14:25.979Z,13.25
2019-03-05T23:16:55.473Z,9.30
2019-03-05T23:19:25.449Z,13.18
2019-03-05T23:21:54.928Z,11.18
2019-03-05T23:24:24.513Z,10.63
2019-03-05T23:26:55.067Z,9.40
2019-03-05T23:29:44.362Z,14.90
2019-03-05T23:32:16.895Z,11.30
2019-03-05T23:34:46.477Z,10.13
2019-03-05T23:37:15.985Z,9.45
2019-03-05T23:39:45.490Z,7.53
2019-03-05T23:42:15.056Z,10.58
2019-03-05T23:44:44.576Z,11.60
2019-03-05T23:47:14.154Z,15.43
2019-03-05T23:49:43.665Z,8.13
2019-03-05T23:52:13.171Z,8.20
2019-03-05T23:54:42.695Z,15.70
2019-03-05T23:57:12.216Z,11.60
2019-03-05T23:59:41.736Z,7.90
